sensor_id;sensor_type;location;lat;lon;timestamp;temperature;humidity
34147;DHT22;20423;49.448;9.056;2023-08-31T00:02:11;10.80;99.90
34147;DHT22;20423;49.448;9.056;2023-08-31T00:04:37;10.80;99.90
34147;DHT22;20423;49.448;9.056;2023-08-31T00:07:03;10.70;99.90
34147;DHT22;20423;49.448;9.056;2023-08-31T00:09:29;10.60;99.90
34147;DHT22;20423;49.448;9.056;2023-08-31T00:11:57;10.60;99.90
34147;DHT22;20423;49.448;9.056;2023-08-31T00:14:24;10.70;99.90
34147;DHT22;20423;49.448;9.056;2023-08-31T00:16:50;10.70;99.90
34147;DHT22;20423;49.448;9.056;2023-08-31T00:19:16;10.70;99.90
34147;DHT22;20423;49.448;9.056;2023-08-31T00:21:42;10.80;99.90
34147;DHT22;20423;49.448;9.056;2023-08-31T00:24:08;10.90;99.90
34147;DHT22;20423;49.448;9.056;2023-08-31T00:26:36;10.90;99.90
34147;DHT22;20423;49.448;9.056;2023-08-31T00:29:07;10.90;99.90
34147;DHT22;20423;49.448;9.056;2023-08-31T00:31:32;11.00;99.90
34147;DHT22;20423;49.448;9.056;2023-08-31T00:34:08;11.00;99.90
34147;DHT22;20423;49.448;9.056;2023-08-31T00:36:37;11.00;99.90
34147;DHT22;20423;49.448;9.056;2023-08-31T00:39:04;11.00;99.90
34147;DHT22;20423;49.448;9.056;2023-08-31T00:41:37;11.10;99.90
34147;DHT22;20423;49.448;9.056;2023-08-31T00:44:03;11.10;99.90
34147;DHT22;20423;49.448;9.056;2023-08-31T00:46:33;11.00;99.90
34147;DHT22;20423;49.448;9.056;2023-08-31T00:52:06;10.80;99.90
34147;DHT22;20423;49.448;9.056;2023-08-31T00:54:33;10.70;99.90
34147;DHT22;20423;49.448;9.056;2023-08-31T00:57:00;10.70;99.90
34147;DHT22;20423;49.448;9.056;2023-08-31T00:59:27;10.90;99.90
34147;DHT22;20423;49.448;9.056;2023-08-31T01:02:17;11.00;99.90
34147;DHT22;20423;49.448;9.056;2023-08-31T01:04:56;11.00;99.90
34147;DHT22;20423;49.448;9.056;2023-08-31T01:07:51;11.00;99.90
34147;DHT22;20423;49.448;9.056;2023-08-31T01:12:54;11.00;99.90
34147;DHT22;20423;49.448;9.056;2023-08-31T01:15:21;10.90;99.90
34147;DHT22;20423;49.448;9.056;2023-08-31T01:17:49;10.80;99.90
34147;DHT22;20423;49.448;9.056;2023-08-31T01:20:21;10.80;99.90
34147;DHT22;20423;49.448;9.056;2023-08-31T01:23:00;10.70;99.90
34147;DHT22;20423;49.448;9.056;2023-08-31T01:25:30;10.60;99.90
34147;DHT22;20423;49.448;9.056;2023-08-31T01:27:59;10.60;99.90
34147;DHT22;20423;49.448;9.056;2023-08-31T01:30:29;10.60;99.90
34147;DHT22;20423;49.448;9.056;2023-08-31T01:32:54;10.60;99.90
34147;DHT22;20423;49.448;9.056;2023-08-31T01:35:21;10.60;99.90
34147;DHT22;20423;49.448;9.056;2023-08-31T01:37:55;10.60;99.90
34147;DHT22;20423;49.448;9.056;2023-08-31T01:40:46;10.50;99.90
34147;DHT22;20423;49.448;9.056;2023-08-31T01:43:16;10.40;99.90
34147;DHT22;20423;49.448;9.056;2023-08-31T01:45:43;10.30;99.90
34147;DHT22;20423;49.448;9.056;2023-08-31T01:48:11;10.50;99.90
34147;DHT22;20423;49.448;9.056;2023-08-31T01:50:38;10.60;99.90
34147;DHT22;20423;49.448;9.056;2023-08-31T01:53:05;10.70;99.90
34147;DHT22;20423;49.448;9.056;2023-08-31T01:55:32;10.70;99.90
34147;DHT22;20423;49.448;9.056;2023-08-31T01:57:59;10.70;99.90
34147;DHT22;20423;49.448;9.056;2023-08-31T02:03:36;10.80;99.90
34147;DHT22;20423;49.448;9.056;2023-08-31T02:06:01;10.90;99.90
34147;DHT22;20423;49.448;9.056;2023-08-31T02:08:29;10.90;99.90
34147;DHT22;20423;49.448;9.056;2023-08-31T02:10:54;11.00;99.90
34147;DHT22;20423;49.448;9.056;2023-08-31T02:13:22;11.00;99.90
34147;DHT22;20423;49.448;9.056;2023-08-31T02:15:51;11.00;99.90
34147;DHT22;20423;49.448;9.056;2023-08-31T02:18:19;11.10;99.90
34147;DHT22;20423;49.448;9.056;2023-08-31T02:20:45;11.10;99.90
34147;DHT22;20423;49.448;9.056;2023-08-31T02:23:11;11.10;99.90
34147;DHT22;20423;49.448;9.056;2023-08-31T02:25:38;11.10;99.90
34147;DHT22;20423;49.448;9.056;2023-08-31T02:28:04;11.10;99.90
34147;DHT22;20423;49.448;9.056;2023-08-31T02:30:30;11.10;99.90
34147;DHT22;20423;49.448;9.056;2023-08-31T02:32:56;11.10;99.90
34147;DHT22;20423;49.448;9.056;2023-08-31T02:35:22;11.10;99.90
34147;DHT22;20423;49.448;9.056;2023-08-31T02:37:48;11.10;99.90
34147;DHT22;20423;49.448;9.056;2023-08-31T02:40:26;11.10;99.90
34147;DHT22;20423;49.448;9.056;2023-08-31T02:42:52;11.10;99.90
34147;DHT22;20423;49.448;9.056;2023-08-31T02:45:18;11.10;99.90
34147;DHT22;20423;49.448;9.056;2023-08-31T02:47:43;11.00;99.90
34147;DHT22;20423;49.448;9.056;2023-08-31T02:50:09;11.10;99.90
34147;DHT22;20423;49.448;9.056;2023-08-31T02:52:35;11.10;99.90
34147;DHT22;20423;49.448;9.056;2023-08-31T02:55:01;11.10;99.90
34147;DHT22;20423;49.448;9.056;2023-08-31T03:01:14;11.00;99.90
34147;DHT22;20423;49.448;9.056;2023-08-31T03:03:49;11.00;99.90
34147;DHT22;20423;49.448;9.056;2023-08-31T03:06:14;11.00;99.90
34147;DHT22;20423;49.448;9.056;2023-08-31T03:08:40;11.10;99.90
34147;DHT22;20423;49.448;9.056;2023-08-31T03:11:07;10.90;99.90
34147;DHT22;20423;49.448;9.056;2023-08-31T03:13:33;10.80;99.90
34147;DHT22;20423;49.448;9.056;2023-08-31T03:16:00;10.80;99.90
34147;DHT22;20423;49.448;9.056;2023-08-31T03:18:26;10.80;99.90
34147;DHT22;20423;49.448;9.056;2023-08-31T03:20:55;10.90;99.90
34147;DHT22;20423;49.448;9.056;2023-08-31T03:23:21;10.90;99.90
34147;DHT22;20423;49.448;9.056;2023-08-31T03:25:46;10.90;99.90
34147;DHT22;20423;49.448;9.056;2023-08-31T03:28:13;10.80;99.90
34147;DHT22;20423;49.448;9.056;2023-08-31T03:30:38;10.90;99.90
34147;DHT22;20423;49.448;9.056;2023-08-31T03:33:04;10.80;99.90
34147;DHT22;20423;49.448;9.056;2023-08-31T03:35:32;10.90;99.90
34147;DHT22;20423;49.448;9.056;2023-08-31T03:37:59;10.90;99.90
34147;DHT22;20423;49.448;9.056;2023-08-31T03:40:26;10.90;99.90
34147;DHT22;20423;49.448;9.056;2023-08-31T03:43:01;10.90;99.90
34147;DHT22;20423;49.448;9.056;2023-08-31T03:45:27;10.80;99.90
34147;DHT22;20423;49.448;9.056;2023-08-31T03:48:11;10.80;99.90
34147;DHT22;20423;49.448;9.056;2023-08-31T03:50:37;10.80;99.90
34147;DHT22;20423;49.448;9.056;2023-08-31T03:53:05;10.80;99.90
34147;DHT22;20423;49.448;9.056;2023-08-31T03:55:30;10.70;99.90
34147;DHT22;20423;49.448;9.056;2023-08-31T03:58:15;10.70;99.90
34147;DHT22;20423;49.448;9.056;2023-08-31T04:00:44;10.70;99.90
34147;DHT22;20423;49.448;9.056;2023-08-31T04:03:10;10.60;99.90
34147;DHT22;20423;49.448;9.056;2023-08-31T04:05:36;10.60;99.90
34147;DHT22;20423;49.448;9.056;2023-08-31T04:08:24;10.70;99.90
34147;DHT22;20423;49.448;9.056;2023-08-31T04:10:53;10.70;99.90
34147;DHT22;20423;49.448;9.056;2023-08-31T04:13:20;10.70;99.90
34147;DHT22;20423;49.448;9.056;2023-08-31T04:15:46;10.70;99.90
34147;DHT22;20423;49.448;9.056;2023-08-31T04:18:14;10.70;99.90
34147;DHT22;20423;49.448;9.056;2023-08-31T04:20:49;10.70;99.90
34147;DHT22;20423;49.448;9.056;2023-08-31T04:23:17;10.70;99.90
34147;DHT22;20423;49.448;9.056;2023-08-31T04:25:43;10.60;99.90
34147;DHT22;20423;49.448;9.056;2023-08-31T04:28:08;10.60;99.90
34147;DHT22;20423;49.448;9.056;2023-08-31T04:30:34;10.60;99.90
34147;DHT22;20423;49.448;9.056;2023-08-31T04:33:00;10.60;99.90
34147;DHT22;20423;49.448;9.056;2023-08-31T04:35:26;10.60;99.90
34147;DHT22;20423;49.448;9.056;2023-08-31T04:37:52;10.60;99.90
34147;DHT22;20423;49.448;9.056;2023-08-31T04:40:18;10.60;99.90
34147;DHT22;20423;49.448;9.056;2023-08-31T04:42:44;10.60;99.90
34147;DHT22;20423;49.448;9.056;2023-08-31T04:45:09;10.60;99.90
34147;DHT22;20423;49.448;9.056;2023-08-31T04:47:37;10.60;99.90
34147;DHT22;20423;49.448;9.056;2023-08-31T04:50:02;10.70;99.90
34147;DHT22;20423;49.448;9.056;2023-08-31T04:52:29;10.70;99.90
34147;DHT22;20423;49.448;9.056;2023-08-31T04:54:54;10.70;99.90
34147;DHT22;20423;49.448;9.056;2023-08-31T04:57:20;10.70;99.90
34147;DHT22;20423;49.448;9.056;2023-08-31T04:59:46;10.80;99.90
34147;DHT22;20423;49.448;9.056;2023-08-31T05:02:12;10.70;99.90
34147;DHT22;20423;49.448;9.056;2023-08-31T05:04:37;10.80;99.90
34147;DHT22;20423;49.448;9.056;2023-08-31T05:07:03;10.80;99.90
34147;DHT22;20423;49.448;9.056;2023-08-31T05:09:29;10.90;99.90
34147;DHT22;20423;49.448;9.056;2023-08-31T05:11:58;11.00;99.90
34147;DHT22;20423;49.448;9.056;2023-08-31T05:14:24;11.00;99.90
34147;DHT22;20423;49.448;9.056;2023-08-31T05:16:50;11.00;99.90
34147;DHT22;20423;49.448;9.056;2023-08-31T05:19:16;11.10;99.90
34147;DHT22;20423;49.448;9.056;2023-08-31T05:21:42;11.20;99.90
34147;DHT22;20423;49.448;9.056;2023-08-31T05:24:08;11.20;99.90
34147;DHT22;20423;49.448;9.056;2023-08-31T05:26:33;11.20;99.90
34147;DHT22;20423;49.448;9.056;2023-08-31T05:28:59;11.20;99.90
34147;DHT22;20423;49.448;9.056;2023-08-31T05:31:25;11.10;99.90
34147;DHT22;20423;49.448;9.056;2023-08-31T05:33:50;11.20;99.90
34147;DHT22;20423;49.448;9.056;2023-08-31T05:36:16;11.20;99.90
34147;DHT22;20423;49.448;9.056;2023-08-31T05:38:42;11.20;99.90
34147;DHT22;20423;49.448;9.056;2023-08-31T05:41:08;11.30;99.90
34147;DHT22;20423;49.448;9.056;2023-08-31T05:43:35;11.30;99.90
34147;DHT22;20423;49.448;9.056;2023-08-31T05:46:01;11.40;99.90
34147;DHT22;20423;49.448;9.056;2023-08-31T05:48:28;11.30;99.90
34147;DHT22;20423;49.448;9.056;2023-08-31T05:50:54;11.40;99.90
34147;DHT22;20423;49.448;9.056;2023-08-31T05:53:20;11.40;99.90
34147;DHT22;20423;49.448;9.056;2023-08-31T05:55:46;11.50;99.90
34147;DHT22;20423;49.448;9.056;2023-08-31T05:58:11;11.50;99.90
34147;DHT22;20423;49.448;9.056;2023-08-31T06:00:43;11.50;99.90
34147;DHT22;20423;49.448;9.056;2023-08-31T06:03:09;11.60;99.90
34147;DHT22;20423;49.448;9.056;2023-08-31T06:05:35;11.70;99.90
34147;DHT22;20423;49.448;9.056;2023-08-31T06:08:01;11.80;99.90
34147;DHT22;20423;49.448;9.056;2023-08-31T06:10:27;11.80;99.90
34147;DHT22;20423;49.448;9.056;2023-08-31T06:12:52;11.90;99.90
34147;DHT22;20423;49.448;9.056;2023-08-31T06:15:18;12.00;99.90
34147;DHT22;20423;49.448;9.056;2023-08-31T06:17:44;12.10;99.90
34147;DHT22;20423;49.448;9.056;2023-08-31T06:20:10;12.20;99.90
34147;DHT22;20423;49.448;9.056;2023-08-31T06:22:36;12.20;99.90
34147;DHT22;20423;49.448;9.056;2023-08-31T06:25:02;12.10;99.90
34147;DHT22;20423;49.448;9.056;2023-08-31T06:27:31;12.20;99.90
34147;DHT22;20423;49.448;9.056;2023-08-31T06:29:56;12.40;99.90
34147;DHT22;20423;49.448;9.056;2023-08-31T06:32:22;12.50;99.90
34147;DHT22;20423;49.448;9.056;2023-08-31T06:34:48;12.50;99.90
34147;DHT22;20423;49.448;9.056;2023-08-31T06:37:14;12.60;99.90
34147;DHT22;20423;49.448;9.056;2023-08-31T06:39:40;12.70;99.90
34147;DHT22;20423;49.448;9.056;2023-08-31T06:42:06;12.80;99.90
34147;DHT22;20423;49.448;9.056;2023-08-31T06:44:32;12.90;99.90
34147;DHT22;20423;49.448;9.056;2023-08-31T06:46:57;13.00;99.90
34147;DHT22;20423;49.448;9.056;2023-08-31T06:49:23;12.90;99.90
34147;DHT22;20423;49.448;9.056;2023-08-31T06:51:50;12.90;99.90
34147;DHT22;20423;49.448;9.056;2023-08-31T06:54:15;12.90;99.90
34147;DHT22;20423;49.448;9.056;2023-08-31T06:56:41;12.90;99.90
34147;DHT22;20423;49.448;9.056;2023-08-31T06:59:07;13.00;99.90
34147;DHT22;20423;49.448;9.056;2023-08-31T07:01:34;13.10;99.90
34147;DHT22;20423;49.448;9.056;2023-08-31T07:04:00;13.20;99.90
34147;DHT22;20423;49.448;9.056;2023-08-31T07:06:26;13.20;99.90
34147;DHT22;20423;49.448;9.056;2023-08-31T07:08:51;13.20;99.90
34147;DHT22;20423;49.448;9.056;2023-08-31T07:11:17;12.90;99.90
34147;DHT22;20423;49.448;9.056;2023-08-31T07:13:43;12.80;99.90
34147;DHT22;20423;49.448;9.056;2023-08-31T07:16:09;12.60;99.90
34147;DHT22;20423;49.448;9.056;2023-08-31T07:18:36;12.30;99.90
34147;DHT22;20423;49.448;9.056;2023-08-31T07:21:02;12.20;99.90
34147;DHT22;20423;49.448;9.056;2023-08-31T07:23:30;12.10;99.90
34147;DHT22;20423;49.448;9.056;2023-08-31T07:25:59;12.00;99.90
34147;DHT22;20423;49.448;9.056;2023-08-31T07:28:26;12.10;99.90
34147;DHT22;20423;49.448;9.056;2023-08-31T07:31:02;12.10;99.90
34147;DHT22;20423;49.448;9.056;2023-08-31T07:33:30;12.10;99.90
34147;DHT22;20423;49.448;9.056;2023-08-31T07:35:57;12.20;99.90
34147;DHT22;20423;49.448;9.056;2023-08-31T07:38:23;12.20;99.90
34147;DHT22;20423;49.448;9.056;2023-08-31T07:40:49;12.30;99.90
34147;DHT22;20423;49.448;9.056;2023-08-31T07:43:14;12.30;99.90
34147;DHT22;20423;49.448;9.056;2023-08-31T07:45:40;12.30;99.90
34147;DHT22;20423;49.448;9.056;2023-08-31T07:48:06;12.40;99.90
34147;DHT22;20423;49.448;9.056;2023-08-31T07:50:33;12.50;99.90
34147;DHT22;20423;49.448;9.056;2023-08-31T07:53:00;12.50;99.90
34147;DHT22;20423;49.448;9.056;2023-08-31T07:55:25;12.60;99.90
34147;DHT22;20423;49.448;9.056;2023-08-31T07:57:51;12.70;99.90
34147;DHT22;20423;49.448;9.056;2023-08-31T08:00:17;12.70;99.90
34147;DHT22;20423;49.448;9.056;2023-08-31T08:02:45;12.80;99.90
34147;DHT22;20423;49.448;9.056;2023-08-31T08:05:11;12.90;99.90
34147;DHT22;20423;49.448;9.056;2023-08-31T08:07:37;13.00;99.90
34147;DHT22;20423;49.448;9.056;2023-08-31T08:10:03;13.10;99.90
34147;DHT22;20423;49.448;9.056;2023-08-31T08:12:39;13.30;99.90
34147;DHT22;20423;49.448;9.056;2023-08-31T08:15:06;13.60;99.90
34147;DHT22;20423;49.448;9.056;2023-08-31T08:17:35;13.70;99.90
34147;DHT22;20423;49.448;9.056;2023-08-31T08:20:01;13.90;99.90
34147;DHT22;20423;49.448;9.056;2023-08-31T08:22:27;14.20;99.90
34147;DHT22;20423;49.448;9.056;2023-08-31T08:24:52;14.40;99.90
34147;DHT22;20423;49.448;9.056;2023-08-31T08:27:18;14.30;99.90
34147;DHT22;20423;49.448;9.056;2023-08-31T08:29:45;14.40;99.90
34147;DHT22;20423;49.448;9.056;2023-08-31T08:32:11;14.80;99.90
34147;DHT22;20423;49.448;9.056;2023-08-31T08:38:25;15.00;99.90
34147;DHT22;20423;49.448;9.056;2023-08-31T08:40:50;14.80;99.90
34147;DHT22;20423;49.448;9.056;2023-08-31T08:43:22;14.50;99.90
34147;DHT22;20423;49.448;9.056;2023-08-31T08:45:51;14.50;99.90
34147;DHT22;20423;49.448;9.056;2023-08-31T08:48:17;14.60;99.90
34147;DHT22;20423;49.448;9.056;2023-08-31T08:50:45;14.60;99.90
34147;DHT22;20423;49.448;9.056;2023-08-31T08:53:16;14.50;99.90
34147;DHT22;20423;49.448;9.056;2023-08-31T08:55:42;14.60;99.90
34147;DHT22;20423;49.448;9.056;2023-08-31T08:58:08;14.70;99.90
34147;DHT22;20423;49.448;9.056;2023-08-31T09:00:34;14.80;99.90
34147;DHT22;20423;49.448;9.056;2023-08-31T09:03:01;15.80;99.90
34147;DHT22;20423;49.448;9.056;2023-08-31T09:05:34;16.80;99.90
34147;DHT22;20423;49.448;9.056;2023-08-31T09:08:07;16.80;99.90
34147;DHT22;20423;49.448;9.056;2023-08-31T09:10:40;16.50;99.90
34147;DHT22;20423;49.448;9.056;2023-08-31T09:13:13;15.90;99.90
34147;DHT22;20423;49.448;9.056;2023-08-31T09:15:44;15.20;99.90
34147;DHT22;20423;49.448;9.056;2023-08-31T09:18:23;15.20;99.90
34147;DHT22;20423;49.448;9.056;2023-08-31T09:20:49;15.10;99.90
34147;DHT22;20423;49.448;9.056;2023-08-31T09:23:17;15.00;99.90
34147;DHT22;20423;49.448;9.056;2023-08-31T09:25:48;15.00;99.90
34147;DHT22;20423;49.448;9.056;2023-08-31T09:28:18;15.30;99.90
34147;DHT22;20423;49.448;9.056;2023-08-31T09:30:46;15.90;99.90
34147;DHT22;20423;49.448;9.056;2023-08-31T09:33:14;16.40;99.90
34147;DHT22;20423;49.448;9.056;2023-08-31T09:35:56;16.90;99.90
34147;DHT22;20423;49.448;9.056;2023-08-31T09:38:23;16.80;99.90
34147;DHT22;20423;49.448;9.056;2023-08-31T09:40:49;17.00;99.90
34147;DHT22;20423;49.448;9.056;2023-08-31T09:43:22;17.10;99.90
34147;DHT22;20423;49.448;9.056;2023-08-31T09:45:49;17.10;99.90
34147;DHT22;20423;49.448;9.056;2023-08-31T09:48:16;17.40;99.90
34147;DHT22;20423;49.448;9.056;2023-08-31T09:50:44;17.50;99.90
34147;DHT22;20423;49.448;9.056;2023-08-31T09:53:16;17.50;99.90
34147;DHT22;20423;49.448;9.056;2023-08-31T09:55:43;17.30;99.90
34147;DHT22;20423;49.448;9.056;2023-08-31T09:58:12;17.70;99.90
34147;DHT22;20423;49.448;9.056;2023-08-31T10:00:41;17.30;99.90
34147;DHT22;20423;49.448;9.056;2023-08-31T10:03:07;17.20;99.90
34147;DHT22;20423;49.448;9.056;2023-08-31T10:05:34;16.90;99.90
34147;DHT22;20423;49.448;9.056;2023-08-31T10:08:00;16.70;99.90
34147;DHT22;20423;49.448;9.056;2023-08-31T10:10:28;16.50;99.90
34147;DHT22;20423;49.448;9.056;2023-08-31T10:13:07;16.40;99.90
34147;DHT22;20423;49.448;9.056;2023-08-31T10:15:52;16.30;99.90
34147;DHT22;20423;49.448;9.056;2023-08-31T10:18:18;16.30;99.90
34147;DHT22;20423;49.448;9.056;2023-08-31T10:20:44;16.00;99.90
34147;DHT22;20423;49.448;9.056;2023-08-31T10:23:11;16.30;99.90
34147;DHT22;20423;49.448;9.056;2023-08-31T10:28:18;16.50;99.90
34147;DHT22;20423;49.448;9.056;2023-08-31T10:31:04;16.80;99.90
34147;DHT22;20423;49.448;9.056;2023-08-31T10:33:47;16.70;99.90
34147;DHT22;20423;49.448;9.056;2023-08-31T10:36:21;16.40;99.90
34147;DHT22;20423;49.448;9.056;2023-08-31T10:41:22;16.40;99.90
34147;DHT22;20423;49.448;9.056;2023-08-31T10:48:59;17.10;99.90
34147;DHT22;20423;49.448;9.056;2023-08-31T10:51:27;16.90;99.90
34147;DHT22;20423;49.448;9.056;2023-08-31T11:05:18;17.70;99.90
34147;DHT22;20423;49.448;9.056;2023-08-31T11:07:48;17.80;99.90
34147;DHT22;20423;49.448;9.056;2023-08-31T11:10:19;18.30;99.90
34147;DHT22;20423;49.448;9.056;2023-08-31T11:12:47;18.80;99.90
34147;DHT22;20423;49.448;9.056;2023-08-31T11:15:15;18.50;99.90
34147;DHT22;20423;49.448;9.056;2023-08-31T11:17:42;18.30;99.90
34147;DHT22;20423;49.448;9.056;2023-08-31T11:20:13;18.50;99.90
34147;DHT22;20423;49.448;9.056;2023-08-31T11:22:41;19.30;99.90
34147;DHT22;20423;49.448;9.056;2023-08-31T11:25:08;20.10;99.90
34147;DHT22;20423;49.448;9.056;2023-08-31T11:27:34;21.00;99.90
34147;DHT22;20423;49.448;9.056;2023-08-31T11:30:00;20.50;99.90
34147;DHT22;20423;49.448;9.056;2023-08-31T11:32:26;19.70;99.90
34147;DHT22;20423;49.448;9.056;2023-08-31T11:34:51;19.70;99.90
34147;DHT22;20423;49.448;9.056;2023-08-31T11:37:17;20.80;99.90
34147;DHT22;20423;49.448;9.056;2023-08-31T11:39:53;20.80;99.90
34147;DHT22;20423;49.448;9.056;2023-08-31T11:42:20;19.90;99.90
34147;DHT22;20423;49.448;9.056;2023-08-31T11:44:50;18.70;99.90
34147;DHT22;20423;49.448;9.056;2023-08-31T11:47:17;18.20;99.90
34147;DHT22;20423;49.448;9.056;2023-08-31T11:49:44;18.10;99.90
34147;DHT22;20423;49.448;9.056;2023-08-31T11:52:12;18.30;99.90
34147;DHT22;20423;49.448;9.056;2023-08-31T11:54:42;18.50;99.90
34147;DHT22;20423;49.448;9.056;2023-08-31T11:57:08;18.40;99.90
34147;DHT22;20423;49.448;9.056;2023-08-31T11:59:35;18.20;99.90
34147;DHT22;20423;49.448;9.056;2023-08-31T12:02:02;17.90;99.90
34147;DHT22;20423;49.448;9.056;2023-08-31T12:04:30;17.50;99.90
34147;DHT22;20423;49.448;9.056;2023-08-31T12:07:02;16.90;99.90
34147;DHT22;20423;49.448;9.056;2023-08-31T12:09:30;16.60;99.90
34147;DHT22;20423;49.448;9.056;2023-08-31T12:11:56;16.70;99.90
34147;DHT22;20423;49.448;9.056;2023-08-31T12:14:26;17.00;99.90
34147;DHT22;20423;49.448;9.056;2023-08-31T12:16:53;17.20;99.90
34147;DHT22;20423;49.448;9.056;2023-08-31T12:19:27;17.60;99.90
34147;DHT22;20423;49.448;9.056;2023-08-31T12:22:31;17.60;99.90
34147;DHT22;20423;49.448;9.056;2023-08-31T12:24:57;17.40;99.90
34147;DHT22;20423;49.448;9.056;2023-08-31T12:27:22;17.10;99.90
34147;DHT22;20423;49.448;9.056;2023-08-31T12:29:48;17.30;99.90
34147;DHT22;20423;49.448;9.056;2023-08-31T12:32:15;17.50;99.90
34147;DHT22;20423;49.448;9.056;2023-08-31T12:34:43;17.90;99.90
34147;DHT22;20423;49.448;9.056;2023-08-31T12:37:09;18.00;99.90
34147;DHT22;20423;49.448;9.056;2023-08-31T12:39:34;18.30;99.90
34147;DHT22;20423;49.448;9.056;2023-08-31T12:42:00;18.60;99.90
34147;DHT22;20423;49.448;9.056;2023-08-31T12:44:26;18.60;99.90
34147;DHT22;20423;49.448;9.056;2023-08-31T12:46:52;18.60;99.90
34147;DHT22;20423;49.448;9.056;2023-08-31T12:49:18;18.70;99.90
34147;DHT22;20423;49.448;9.056;2023-08-31T12:51:46;18.70;99.90
34147;DHT22;20423;49.448;9.056;2023-08-31T12:54:11;18.80;99.90
34147;DHT22;20423;49.448;9.056;2023-08-31T12:56:37;18.60;99.90
34147;DHT22;20423;49.448;9.056;2023-08-31T12:59:03;18.80;99.90
34147;DHT22;20423;49.448;9.056;2023-08-31T13:01:31;18.90;99.90
34147;DHT22;20423;49.448;9.056;2023-08-31T13:03:59;18.70;99.90
34147;DHT22;20423;49.448;9.056;2023-08-31T13:06:24;18.10;99.90
34147;DHT22;20423;49.448;9.056;2023-08-31T13:08:52;17.50;99.90
34147;DHT22;20423;49.448;9.056;2023-08-31T13:11:18;17.40;99.90
34147;DHT22;20423;49.448;9.056;2023-08-31T13:13:49;17.40;99.90
34147;DHT22;20423;49.448;9.056;2023-08-31T13:16:16;17.30;99.90
34147;DHT22;20423;49.448;9.056;2023-08-31T13:18:42;17.30;99.90
34147;DHT22;20423;49.448;9.056;2023-08-31T13:21:08;17.40;99.90
34147;DHT22;20423;49.448;9.056;2023-08-31T13:23:33;17.60;99.90
34147;DHT22;20423;49.448;9.056;2023-08-31T13:25:59;18.00;99.90
34147;DHT22;20423;49.448;9.056;2023-08-31T13:28:25;18.00;99.90
34147;DHT22;20423;49.448;9.056;2023-08-31T13:34:39;18.40;99.90
34147;DHT22;20423;49.448;9.056;2023-08-31T13:37:05;18.10;99.90
34147;DHT22;20423;49.448;9.056;2023-08-31T13:39:35;17.80;99.90
34147;DHT22;20423;49.448;9.056;2023-08-31T13:42:06;17.40;99.90
34147;DHT22;20423;49.448;9.056;2023-08-31T13:44:32;17.20;99.90
34147;DHT22;20423;49.448;9.056;2023-08-31T13:46:58;17.00;99.90
34147;DHT22;20423;49.448;9.056;2023-08-31T13:49:23;16.80;99.90
34147;DHT22;20423;49.448;9.056;2023-08-31T13:51:49;16.90;99.90
34147;DHT22;20423;49.448;9.056;2023-08-31T13:54:22;17.10;99.90
34147;DHT22;20423;49.448;9.056;2023-08-31T13:56:47;17.30;99.90
34147;DHT22;20423;49.448;9.056;2023-08-31T13:59:18;17.90;99.90
34147;DHT22;20423;49.448;9.056;2023-08-31T14:01:44;18.40;99.90
34147;DHT22;20423;49.448;9.056;2023-08-31T14:04:09;18.40;99.90
34147;DHT22;20423;49.448;9.056;2023-08-31T14:06:35;18.20;99.90
34147;DHT22;20423;49.448;9.056;2023-08-31T14:09:01;18.00;99.90
34147;DHT22;20423;49.448;9.056;2023-08-31T14:11:28;18.10;99.90
34147;DHT22;20423;49.448;9.056;2023-08-31T14:14:04;18.00;99.90
34147;DHT22;20423;49.448;9.056;2023-08-31T14:16:31;17.90;99.90
34147;DHT22;20423;49.448;9.056;2023-08-31T14:18:57;17.90;99.90
34147;DHT22;20423;49.448;9.056;2023-08-31T14:21:23;17.80;99.90
34147;DHT22;20423;49.448;9.056;2023-08-31T14:23:49;17.90;99.90
34147;DHT22;20423;49.448;9.056;2023-08-31T14:26:15;18.10;99.90
34147;DHT22;20423;49.448;9.056;2023-08-31T14:28:40;18.50;99.90
34147;DHT22;20423;49.448;9.056;2023-08-31T14:31:08;18.70;99.90
34147;DHT22;20423;49.448;9.056;2023-08-31T14:33:33;18.70;99.90
34147;DHT22;20423;49.448;9.056;2023-08-31T14:35:59;18.80;99.90
34147;DHT22;20423;49.448;9.056;2023-08-31T14:38:25;19.00;99.90
34147;DHT22;20423;49.448;9.056;2023-08-31T14:40:54;19.20;99.90
34147;DHT22;20423;49.448;9.056;2023-08-31T14:43:20;19.20;99.90
34147;DHT22;20423;49.448;9.056;2023-08-31T14:45:47;19.10;99.90
34147;DHT22;20423;49.448;9.056;2023-08-31T14:48:13;18.80;99.90
34147;DHT22;20423;49.448;9.056;2023-08-31T14:50:43;18.80;99.90
34147;DHT22;20423;49.448;9.056;2023-08-31T14:53:10;18.50;99.90
34147;DHT22;20423;49.448;9.056;2023-08-31T14:55:49;18.40;99.90
34147;DHT22;20423;49.448;9.056;2023-08-31T14:58:15;18.40;99.90
34147;DHT22;20423;49.448;9.056;2023-08-31T15:00:41;18.00;99.90
34147;DHT22;20423;49.448;9.056;2023-08-31T15:03:06;18.00;99.90
34147;DHT22;20423;49.448;9.056;2023-08-31T15:05:32;18.00;99.90
34147;DHT22;20423;49.448;9.056;2023-08-31T15:07:57;17.80;99.90
34147;DHT22;20423;49.448;9.056;2023-08-31T15:10:23;17.70;99.90
34147;DHT22;20423;49.448;9.056;2023-08-31T15:12:49;17.30;99.90
34147;DHT22;20423;49.448;9.056;2023-08-31T15:15:32;17.20;99.90
34147;DHT22;20423;49.448;9.056;2023-08-31T15:17:58;17.00;99.90
34147;DHT22;20423;49.448;9.056;2023-08-31T15:20:25;16.70;99.90
34147;DHT22;20423;49.448;9.056;2023-08-31T15:22:51;16.60;99.90
34147;DHT22;20423;49.448;9.056;2023-08-31T15:25:16;16.50;99.90
34147;DHT22;20423;49.448;9.056;2023-08-31T15:27:42;16.50;99.90
34147;DHT22;20423;49.448;9.056;2023-08-31T15:30:08;16.40;99.90
34147;DHT22;20423;49.448;9.056;2023-08-31T15:32:36;16.20;99.90
34147;DHT22;20423;49.448;9.056;2023-08-31T15:35:03;15.90;99.90
34147;DHT22;20423;49.448;9.056;2023-08-31T15:37:38;15.90;99.90
34147;DHT22;20423;49.448;9.056;2023-08-31T15:40:04;16.00;99.90
34147;DHT22;20423;49.448;9.056;2023-08-31T15:42:30;16.30;99.90
34147;DHT22;20423;49.448;9.056;2023-08-31T15:44:58;16.70;99.90
34147;DHT22;20423;49.448;9.056;2023-08-31T15:47:24;17.00;99.90
34147;DHT22;20423;49.448;9.056;2023-08-31T15:49:52;17.10;99.90
34147;DHT22;20423;49.448;9.056;2023-08-31T15:52:17;16.90;99.90
34147;DHT22;20423;49.448;9.056;2023-08-31T15:54:43;16.80;99.90
34147;DHT22;20423;49.448;9.056;2023-08-31T15:57:09;16.70;99.90
34147;DHT22;20423;49.448;9.056;2023-08-31T15:59:34;16.70;99.90
34147;DHT22;20423;49.448;9.056;2023-08-31T16:02:00;16.70;99.90
34147;DHT22;20423;49.448;9.056;2023-08-31T16:04:26;16.80;99.90
34147;DHT22;20423;49.448;9.056;2023-08-31T16:06:51;17.10;99.90
34147;DHT22;20423;49.448;9.056;2023-08-31T16:09:17;18.00;99.90
34147;DHT22;20423;49.448;9.056;2023-08-31T16:11:49;19.00;99.90
34147;DHT22;20423;49.448;9.056;2023-08-31T16:14:14;19.10;99.90
34147;DHT22;20423;49.448;9.056;2023-08-31T16:16:41;18.60;99.90